Time;durP1;ratioP1;P1;durP2;ratioP2;P2;SDS_P1;SDS_P2;PMS_P1;PMS_P2;Temp;Humidity;BMP_temperature;BMP_pressure;BME280_temperature;BME280_humidity;BME280_pressure;Samples;Min_cycle;Max_cycle;Signal;HPM_P1;HPM_P2
2022/08/27 00:01:48;;;;;;;5.90;5.47;;;;;;;;;;5138571;27;20275;-69
2022/08/27 00:04:15;;;;;;;6.03;5.53;;;;;;;;;;5138409;27;20209;-70
2022/08/27 00:06:43;;;;;;;5.43;5.03;;;;;;;;;;5138260;27;20212;-70
2022/08/27 00:09:11;;;;;;;6.00;5.50;;;;;;;;;;5138767;27;20621;-69
2022/08/27 00:11:40;;;;;;;6.30;5.47;;;;;;;;;;5138405;27;20201;-70
2022/08/27 00:14:08;;;;;;;5.50;5.10;;;;;;;;;;5138779;27;20312;-69
2022/08/27 00:16:35;;;;;;;6.05;5.55;;;;;;;;;;5138018;27;20253;-70
2022/08/27 00:19:03;;;;;;;6.07;5.50;;;;;;;;;;5138064;27;20202;-69
2022/08/27 00:21:31;;;;;;;5.72;5.20;;;;;;;;;;5138357;27;20206;-70
2022/08/27 00:23:59;;;;;;;6.57;5.65;;;;;;;;;;5137539;27;20214;-69
2022/08/27 00:26:27;;;;;;;5.97;5.43;;;;;;;;;;5138562;28;20203;-69
2022/08/27 00:28:57;;;;;;;5.57;5.07;;;;;;;;;;5138250;28;20487;-69
2022/08/27 00:31:24;;;;;;;6.15;5.57;;;;;;;;;;5138056;28;20206;-69
2022/08/27 00:33:52;;;;;;;5.75;5.25;;;;;;;;;;5138279;28;20636;-69
2022/08/27 00:36:19;;;;;;;5.88;5.35;;;;;;;;;;5138530;28;20574;-69
2022/08/27 00:38:48;;;;;;;5.50;5.00;;;;;;;;;;5138208;28;20575;-70
2022/08/27 00:41:16;;;;;;;5.97;5.47;;;;;;;;;;5139903;27;20203;-70
2022/08/27 00:43:45;;;;;;;5.50;5.10;;;;;;;;;;5142245;27;20204;-70
2022/08/27 00:46:17;;;;;;;5.95;5.55;;;;;;;;;;5141990;27;20231;-69
2022/08/27 00:48:45;;;;;;;5.90;5.40;;;;;;;;;;5142298;27;20202;-70
2022/08/27 00:51:13;;;;;;;5.38;4.97;;;;;;;;;;5141496;27;20475;-70
2022/08/27 00:53:40;;;;;;;5.80;5.40;;;;;;;;;;5141793;27;20327;-69
2022/08/27 00:56:10;;;;;;;5.78;5.28;;;;;;;;;;5141874;27;20210;-69
2022/08/27 00:58:38;;;;;;;5.55;5.15;;;;;;;;;;5142438;27;20197;-70
2022/08/27 01:01:07;;;;;;;5.60;5.10;;;;;;;;;;5141836;27;20234;-69
2022/08/27 01:03:36;;;;;;;5.70;5.30;;;;;;;;;;5142290;27;20585;-70
2022/08/27 01:06:05;;;;;;;6.53;4.93;;;;;;;;;;5142182;27;20267;-70
2022/08/27 01:08:35;;;;;;;5.90;5.40;;;;;;;;;;5142581;27;20202;-70
2022/08/27 01:11:03;;;;;;;5.85;5.35;;;;;;;;;;5141781;27;20202;-69
2022/08/27 01:13:33;;;;;;;5.50;5.00;;;;;;;;;;5141789;27;20271;-70
2022/08/27 01:16:00;;;;;;;5.93;5.43;;;;;;;;;;5141884;27;20203;-69
2022/08/27 01:18:29;;;;;;;5.75;5.30;;;;;;;;;;5142251;27;20222;-69
2022/08/27 01:21:00;;;;;;;5.82;5.43;;;;;;;;;;5141530;27;20245;-69
2022/08/27 01:23:32;;;;;;;5.65;5.25;;;;;;;;;;5140646;27;20198;-70
2022/08/27 01:26:03;;;;;;;5.90;5.40;;;;;;;;;;5141554;27;20206;-69
2022/08/27 01:28:32;;;;;;;5.40;5.00;;;;;;;;;;5141592;27;20214;-69
2022/08/27 01:30:59;;;;;;;5.55;5.05;;;;;;;;;;5141838;27;20210;-70
2022/08/27 01:33:27;;;;;;;6.22;5.72;;;;;;;;;;5141698;27;20471;-70
2022/08/27 01:35:54;;;;;;;5.97;5.57;;;;;;;;;;5141626;27;20239;-69
2022/08/27 01:38:23;;;;;;;6.00;5.50;;;;;;;;;;5141338;27;20301;-69
2022/08/27 01:40:51;;;;;;;6.00;5.50;;;;;;;;;;5141284;27;20202;-69
2022/08/27 01:43:20;;;;;;;5.85;5.35;;;;;;;;;;5140953;27;20265;-69
2022/08/27 01:45:49;;;;;;;6.13;5.70;;;;;;;;;;5140619;27;20203;-69
2022/08/27 01:48:17;;;;;;;5.90;5.45;;;;;;;;;;5141365;27;20210;-69
2022/08/27 01:50:46;;;;;;;6.70;5.78;;;;;;;;;;5140840;27;20201;-70
2022/08/27 01:53:16;;;;;;;6.30;5.80;;;;;;;;;;5140656;27;20202;-70
2022/08/27 01:55:44;;;;;;;6.10;5.60;;;;;;;;;;5141187;27;20570;-69
2022/08/27 01:58:12;;;;;;;6.07;5.47;;;;;;;;;;5140626;27;20202;-69
2022/08/27 02:00:43;;;;;;;6.10;5.53;;;;;;;;;;5141083;27;20202;-69
2022/08/27 02:03:11;;;;;;;7.50;5.60;;;;;;;;;;5141088;27;20632;-70
2022/08/27 02:05:39;;;;;;;6.53;5.80;;;;;;;;;;5141213;27;20229;-70
2022/08/27 02:08:06;;;;;;;6.28;5.70;;;;;;;;;;5141100;27;20198;-70
2022/08/27 02:10:37;;;;;;;6.63;6.03;;;;;;;;;;5140748;27;20202;-70
2022/08/27 02:13:05;;;;;;;6.13;5.60;;;;;;;;;;5139768;27;20202;-69
2022/08/27 02:15:34;;;;;;;6.03;5.63;;;;;;;;;;5138838;27;20225;-70
2022/08/27 02:18:03;;;;;;;6.75;5.75;;;;;;;;;;5141150;27;20571;-70
2022/08/27 02:20:31;;;;;;;6.15;5.65;;;;;;;;;;5140879;27;20237;-70
2022/08/27 02:22:59;;;;;;;6.20;5.68;;;;;;;;;;5140425;27;20202;-69
2022/08/27 02:25:27;;;;;;;6.25;5.85;;;;;;;;;;5140584;27;20251;-69
2022/08/27 02:27:55;;;;;;;6.63;5.97;;;;;;;;;;5140869;27;20202;-69
2022/08/27 02:30:24;;;;;;;5.93;5.43;;;;;;;;;;5140687;27;20259;-69
2022/08/27 02:32:52;;;;;;;5.90;5.43;;;;;;;;;;5140737;27;20203;-70
2022/08/27 02:35:22;;;;;;;6.40;5.90;;;;;;;;;;5140506;27;20226;-69
2022/08/27 02:37:50;;;;;;;6.97;6.00;;;;;;;;;;5140395;27;20210;-69
2022/08/27 02:40:19;;;;;;;6.45;5.93;;;;;;;;;;5139693;27;20713;-69
2022/08/27 02:42:47;;;;;;;6.03;5.53;;;;;;;;;;5139029;27;20254;-69
2022/08/27 02:45:15;;;;;;;6.70;6.10;;;;;;;;;;5140140;27;20300;-70
2022/08/27 02:47:43;;;;;;;6.53;5.93;;;;;;;;;;5140318;27;20269;-70
2022/08/27 02:50:12;;;;;;;6.50;6.00;;;;;;;;;;5140356;27;20213;-69
2022/08/27 02:52:41;;;;;;;6.63;6.07;;;;;;;;;;5140215;27;20267;-70
2022/08/27 02:55:09;;;;;;;6.40;5.90;;;;;;;;;;5140507;27;20257;-70
2022/08/27 02:57:37;;;;;;;6.63;5.82;;;;;;;;;;5139665;27;20210;-70
2022/08/27 03:00:05;;;;;;;6.05;5.63;;;;;;;;;;5140084;27;20249;-70
2022/08/27 03:02:33;;;;;;;6.72;5.95;;;;;;;;;;5140016;27;20484;-69
2022/08/27 03:05:01;;;;;;;6.15;5.65;;;;;;;;;;5138911;27;20225;-69
2022/08/27 03:07:28;;;;;;;6.88;6.30;;;;;;;;;;5138769;27;20202;-69
2022/08/27 03:09:57;;;;;;;6.70;6.18;;;;;;;;;;5138582;27;20230;-69
2022/08/27 03:12:25;;;;;;;6.75;6.25;;;;;;;;;;5138724;27;20293;-69
2022/08/27 03:14:53;;;;;;;6.90;6.40;;;;;;;;;;5139029;27;20292;-69
2022/08/27 03:20:07;;;;;;;7.30;6.70;;;;;;;;;;5139484;27;20346;-69
2022/08/27 03:22:34;;;;;;;7.25;6.75;;;;;;;;;;5139724;27;20233;-69
2022/08/27 03:25:04;;;;;;;7.78;7.18;;;;;;;;;;5139419;27;20240;-70
2022/08/27 03:27:32;;;;;;;7.72;7.13;;;;;;;;;;5139324;27;20473;-69
2022/08/27 03:29:59;;;;;;;7.20;6.70;;;;;;;;;;5139456;27;20476;-69
2022/08/27 03:32:27;;;;;;;8.13;7.50;;;;;;;;;;5139039;27;20225;-70
2022/08/27 03:34:57;;;;;;;8.30;7.50;;;;;;;;;;5138742;27;20222;-69
2022/08/27 03:37:25;;;;;;;8.15;7.45;;;;;;;;;;5118847;28;20888;-69
2022/08/27 03:39:52;;;;;;;8.18;7.47;;;;;;;;;;5119457;28;20335;-70
2022/08/27 03:42:21;;;;;;;8.50;7.70;;;;;;;;;;5107686;28;20463;-69
2022/08/27 03:44:49;;;;;;;8.75;7.90;;;;;;;;;;5098302;28;20226;-70
2022/08/27 03:47:16;;;;;;;9.00;8.10;;;;;;;;;;5097918;28;20203;-70
2022/08/27 03:49:44;;;;;;;8.98;8.25;;;;;;;;;;5097762;28;20243;-70
2022/08/27 03:52:13;;;;;;;9.18;8.38;;;;;;;;;;5098247;28;20277;-70
2022/08/27 03:54:40;;;;;;;8.60;7.72;;;;;;;;;;5098040;28;20230;-70
2022/08/27 03:57:08;;;;;;;8.90;8.10;;;;;;;;;;5097939;28;20196;-70
2022/08/27 03:59:37;;;;;;;8.90;8.10;;;;;;;;;;5097688;28;20257;-70
2022/08/27 04:02:05;;;;;;;8.15;7.40;;;;;;;;;;5098140;28;20211;-70
2022/08/27 04:04:32;;;;;;;8.00;7.30;;;;;;;;;;5117206;28;20206;-70
2022/08/27 04:07:00;;;;;;;8.32;7.60;;;;;;;;;;5117940;28;20207;-69
2022/08/27 04:09:28;;;;;;;8.85;8.18;;;;;;;;;;5117612;28;20257;-70
2022/08/27 04:11:56;;;;;;;8.27;7.68;;;;;;;;;;5117925;28;20202;-70
2022/08/27 04:14:23;;;;;;;8.32;7.65;;;;;;;;;;5117961;28;20283;-70
2022/08/27 04:16:53;;;;;;;8.80;8.00;;;;;;;;;;5117373;28;20214;-70
2022/08/27 04:19:21;;;;;;;8.13;7.43;;;;;;;;;;5117922;28;20203;-70
2022/08/27 04:21:49;;;;;;;8.15;7.50;;;;;;;;;;5117666;28;20203;-70
2022/08/27 04:24:17;;;;;;;9.02;8.23;;;;;;;;;;5117865;28;20203;-70
2022/08/27 04:26:46;;;;;;;8.82;8.02;;;;;;;;;;5117812;28;20677;-70
2022/08/27 04:29:14;;;;;;;8.02;7.32;;;;;;;;;;5117017;28;20614;-70
2022/08/27 04:31:41;;;;;;;8.55;7.85;;;;;;;;;;5117559;28;20491;-70
2022/08/27 04:34:10;;;;;;;8.07;7.40;;;;;;;;;;5117303;28;20207;-70
2022/08/27 04:36:37;;;;;;;7.95;7.35;;;;;;;;;;5117172;28;20322;-70
2022/08/27 04:39:05;;;;;;;8.25;7.55;;;;;;;;;;5117415;28;20217;-71
2022/08/27 04:41:33;;;;;;;8.40;7.78;;;;;;;;;;5117808;28;20238;-69
2022/08/27 04:44:04;;;;;;;8.65;7.95;;;;;;;;;;5117283;28;20717;-70
2022/08/27 04:46:32;;;;;;;8.82;8.02;;;;;;;;;;5117791;28;20235;-71
2022/08/27 04:49:01;;;;;;;8.35;7.65;;;;;;;;;;5117189;28;20203;-70
2022/08/27 04:51:32;;;;;;;8.52;7.82;;;;;;;;;;5117603;28;20242;-70
2022/08/27 04:54:00;;;;;;;8.43;7.63;;;;;;;;;;5117628;28;20213;-70
2022/08/27 04:56:28;;;;;;;7.60;7.10;;;;;;;;;;5117105;28;20222;-70
2022/08/27 04:58:55;;;;;;;7.90;7.30;;;;;;;;;;5117027;28;20225;-70
2022/08/27 05:01:24;;;;;;;8.18;7.57;;;;;;;;;;5117482;28;20310;-70
2022/08/27 05:03:52;;;;;;;7.88;7.28;;;;;;;;;;5117700;28;20203;-70
2022/08/27 05:06:20;;;;;;;8.10;7.50;;;;;;;;;;5117145;28;20203;-70
2022/08/27 05:08:50;;;;;;;8.30;7.70;;;;;;;;;;5117476;28;20218;-70
2022/08/27 05:11:19;;;;;;;7.97;7.30;;;;;;;;;;5117428;28;20207;-70
2022/08/27 05:13:47;;;;;;;8.23;7.53;;;;;;;;;;5117450;28;20203;-70
2022/08/27 05:16:16;;;;;;;8.50;7.75;;;;;;;;;;5116469;28;20262;-69
2022/08/27 05:18:45;;;;;;;8.88;8.20;;;;;;;;;;5116469;28;20207;-69
2022/08/27 05:21:16;;;;;;;8.18;7.45;;;;;;;;;;5116712;28;20233;-70
2022/08/27 05:23:44;;;;;;;7.78;7.18;;;;;;;;;;5116883;28;20210;-70
2022/08/27 05:26:13;;;;;;;8.35;7.70;;;;;;;;;;5116413;28;20206;-70
2022/08/27 05:28:41;;;;;;;8.52;7.82;;;;;;;;;;5120556;28;20228;-70
2022/08/27 05:31:10;;;;;;;8.10;7.38;;;;;;;;;;5120043;28;20281;-70
2022/08/27 05:33:38;;;;;;;7.80;7.20;;;;;;;;;;5120183;28;20297;-70
2022/08/27 05:36:06;;;;;;;7.90;7.30;;;;;;;;;;5120569;28;20242;-70
2022/08/27 05:38:33;;;;;;;8.70;7.90;;;;;;;;;;5119958;28;20214;-69
2022/08/27 05:41:06;;;;;;;7.65;7.05;;;;;;;;;;5119737;28;20413;-69
2022/08/27 05:43:36;;;;;;;8.18;7.47;;;;;;;;;;5140647;27;20210;-70
2022/08/27 05:46:05;;;;;;;8.43;7.72;;;;;;;;;;5139931;27;20259;-70
2022/08/27 05:48:34;;;;;;;8.63;7.93;;;;;;;;;;5141051;27;20589;-70
2022/08/27 05:51:08;;;;;;;7.85;7.25;;;;;;;;;;5140419;27;20592;-70
2022/08/27 05:53:35;;;;;;;8.18;7.47;;;;;;;;;;5140482;27;20198;-70
2022/08/27 05:56:03;;;;;;;8.02;7.43;;;;;;;;;;5140906;27;20222;-70
2022/08/27 06:01:22;;;;;;;9.10;8.35;;;;;;;;;;5139903;27;20209;-69
2022/08/27 06:03:51;;;;;;;8.75;8.05;;;;;;;;;;5140233;27;20202;-70
2022/08/27 06:06:19;;;;;;;8.48;7.78;;;;;;;;;;5140560;27;20198;-69
2022/08/27 06:08:46;;;;;;;9.15;8.35;;;;;;;;;;5141788;27;20297;-70
2022/08/27 06:11:14;;;;;;;8.73;8.02;;;;;;;;;;5140116;27;20206;-70
2022/08/27 06:13:42;;;;;;;8.30;7.60;;;;;;;;;;5139622;27;20503;-70
2022/08/27 06:16:14;;;;;;;8.65;7.90;;;;;;;;;;5139972;27;20387;-69
2022/08/27 06:18:45;;;;;;;8.95;8.25;;;;;;;;;;5139475;27;20213;-69
2022/08/27 06:21:13;;;;;;;8.35;7.65;;;;;;;;;;5137108;27;20233;-69
2022/08/27 06:23:41;;;;;;;9.07;8.18;;;;;;;;;;5139501;27;20669;-69
2022/08/27 06:26:10;;;;;;;8.63;7.93;;;;;;;;;;5140207;27;20285;-70
2022/08/27 06:28:40;;;;;;;9.05;8.35;;;;;;;;;;5139260;27;20237;-70
2022/08/27 06:31:08;;;;;;;8.75;8.05;;;;;;;;;;5139277;27;20613;-70
2022/08/27 06:33:36;;;;;;;9.00;8.30;;;;;;;;;;5139414;27;20202;-70
2022/08/27 06:36:06;;;;;;;8.55;7.85;;;;;;;;;;5139030;27;20313;-71
2022/08/27 06:38:35;;;;;;;9.07;8.38;;;;;;;;;;5137829;27;20201;-70
2022/08/27 06:41:04;;;;;;;9.07;8.27;;;;;;;;;;5139389;27;20206;-71
2022/08/27 06:43:31;;;;;;;9.27;8.48;;;;;;;;;;5139426;27;20213;-70
2022/08/27 06:46:02;;;;;;;9.02;8.25;;;;;;;;;;5139263;27;20259;-69
2022/08/27 06:48:30;;;;;;;8.95;8.25;;;;;;;;;;5138346;27;20513;-70
2022/08/27 06:50:58;;;;;;;9.05;8.35;;;;;;;;;;5139244;27;20628;-70
2022/08/27 06:53:27;;;;;;;9.77;9.05;;;;;;;;;;5139040;27;20209;-70
2022/08/27 06:55:55;;;;;;;8.95;8.25;;;;;;;;;;5139074;27;20226;-70
2022/08/27 06:58:23;;;;;;;9.45;8.65;;;;;;;;;;5139386;27;20210;-70
2022/08/27 07:00:50;;;;;;;8.75;8.05;;;;;;;;;;5139330;27;20221;-70
2022/08/27 07:03:18;;;;;;;8.38;7.72;;;;;;;;;;5139352;27;20281;-70
2022/08/27 07:05:46;;;;;;;8.20;7.50;;;;;;;;;;5138566;27;20213;-70
2022/08/27 07:08:13;;;;;;;7.50;7.00;;;;;;;;;;5139380;27;20292;-70
2022/08/27 07:10:43;;;;;;;7.78;7.10;;;;;;;;;;5139414;27;20472;-70
2022/08/27 07:13:10;;;;;;;7.53;6.93;;;;;;;;;;5138916;27;20209;-70
2022/08/27 07:15:40;;;;;;;6.60;6.20;;;;;;;;;;5138029;27;20218;-69
2022/08/27 07:18:08;;;;;;;7.20;6.60;;;;;;;;;;5138600;27;20684;-70
2022/08/27 07:20:36;;;;;;;6.75;6.15;;;;;;;;;;5138685;27;20208;-70
2022/08/27 07:23:03;;;;;;;6.18;5.68;;;;;;;;;;5138658;27;20267;-70
2022/08/27 07:25:31;;;;;;;6.25;5.75;;;;;;;;;;5138176;27;20344;-70
2022/08/27 07:28:00;;;;;;;5.93;5.53;;;;;;;;;;5137925;27;20647;-70
2022/08/27 07:30:28;;;;;;;6.15;5.65;;;;;;;;;;5137891;27;20253;-69
2022/08/27 07:32:56;;;;;;;6.13;5.70;;;;;;;;;;5137900;27;20213;-71
2022/08/27 07:35:23;;;;;;;5.43;5.03;;;;;;;;;;5137812;27;20202;-70
2022/08/27 07:37:51;;;;;;;5.68;5.18;;;;;;;;;;5138962;27;20554;-70
2022/08/27 07:40:19;;;;;;;5.60;5.20;;;;;;;;;;5138231;27;20206;-69
2022/08/27 07:45:33;;;;;;;5.28;4.80;;;;;;;;;;5138486;27;20286;-70
2022/08/27 07:48:01;;;;;;;5.00;4.60;;;;;;;;;;5137831;27;20585;-69
2022/08/27 07:50:28;;;;;;;4.90;4.50;;;;;;;;;;5137766;27;20202;-71
2022/08/27 07:52:56;;;;;;;4.82;4.43;;;;;;;;;;5137573;27;20263;-69
2022/08/27 07:55:23;;;;;;;4.95;4.55;;;;;;;;;;5138045;27;20206;-70
2022/08/27 07:57:51;;;;;;;4.95;4.55;;;;;;;;;;5137615;27;20289;-70
2022/08/27 08:00:20;;;;;;;4.75;4.35;;;;;;;;;;5136973;27;20594;-69
2022/08/27 08:02:49;;;;;;;4.65;4.30;;;;;;;;;;5137713;27;20198;-70
2022/08/27 08:05:16;;;;;;;4.82;4.43;;;;;;;;;;5137710;27;20206;-70
2022/08/27 08:07:43;;;;;;;4.50;4.10;;;;;;;;;;5137161;27;20574;-70
2022/08/27 08:10:11;;;;;;;4.25;3.95;;;;;;;;;;5125579;27;20203;-70
2022/08/27 08:12:39;;;;;;;4.40;4.10;;;;;;;;;;5136365;27;20202;-69
2022/08/27 08:15:08;;;;;;;4.50;4.10;;;;;;;;;;5136035;27;20202;-70
2022/08/27 08:17:36;;;;;;;4.13;3.83;;;;;;;;;;5136321;27;20225;-70
2022/08/27 08:20:06;;;;;;;4.10;3.80;;;;;;;;;;5136221;27;20270;-70
2022/08/27 08:22:33;;;;;;;4.30;3.95;;;;;;;;;;5136465;27;20535;-70
2022/08/27 08:25:01;;;;;;;3.83;3.60;;;;;;;;;;5137166;27;20198;-70
2022/08/27 08:27:28;;;;;;;4.00;3.70;;;;;;;;;;5136972;27;20637;-70
2022/08/27 08:29:55;;;;;;;4.00;3.70;;;;;;;;;;5137320;28;20300;-70
2022/08/27 08:32:23;;;;;;;3.70;3.40;;;;;;;;;;5136577;28;20210;-69
2022/08/27 08:34:50;;;;;;;3.83;3.53;;;;;;;;;;5137715;28;20202;-70
2022/08/27 08:37:18;;;;;;;4.10;3.70;;;;;;;;;;5129432;28;20222;-70
2022/08/27 08:39:46;;;;;;;4.25;3.78;;;;;;;;;;5117207;28;20214;-69
2022/08/27 08:42:21;;;;;;;4.18;3.45;;;;;;;;;;5126251;28;20222;-69
2022/08/27 08:44:52;;;;;;;3.45;3.25;;;;;;;;;;5136769;28;20570;-69
2022/08/27 08:47:23;;;;;;;3.63;3.33;;;;;;;;;;5137052;27;20713;-71
2022/08/27 08:49:52;;;;;;;3.53;3.22;;;;;;;;;;5136832;27;20213;-69
2022/08/27 08:52:28;;;;;;;3.25;3.03;;;;;;;;;;5137088;27;20203;-70
2022/08/27 08:54:56;;;;;;;3.78;3.40;;;;;;;;;;5136233;27;20570;-70
2022/08/27 08:57:27;;;;;;;3.33;3.03;;;;;;;;;;5136491;27;20275;-70
2022/08/27 08:59:57;;;;;;;3.22;2.92;;;;;;;;;;5137176;27;20210;-70
2022/08/27 09:02:24;;;;;;;2.97;2.78;;;;;;;;;;5138799;27;20574;-70
2022/08/27 09:04:52;;;;;;;3.13;2.83;;;;;;;;;;5138312;27;20202;-69
2022/08/27 09:07:32;;;;;;;3.33;3.03;;;;;;;;;;5140422;27;20578;-70
2022/08/27 09:10:03;;;;;;;2.60;2.42;;;;;;;;;;5140459;27;20202;-70
2022/08/27 09:12:32;;;;;;;2.60;2.40;;;;;;;;;;5140304;27;20202;-69
2022/08/27 09:15:02;;;;;;;2.78;2.58;;;;;;;;;;5140703;27;20205;-70
2022/08/27 09:17:29;;;;;;;2.50;2.30;;;;;;;;;;5140419;27;20614;-70
2022/08/27 09:19:56;;;;;;;2.35;2.15;;;;;;;;;;5140314;27;20202;-70
2022/08/27 09:22:39;;;;;;;2.33;2.13;;;;;;;;;;5140625;27;20206;-70
2022/08/27 09:25:11;;;;;;;2.28;2.08;;;;;;;;;;5139839;27;20194;-70
2022/08/27 09:27:40;;;;;;;2.20;2.10;;;;;;;;;;5139785;27;20255;-69
2022/08/27 09:30:09;;;;;;;2.30;2.17;;;;;;;;;;5139312;27;20267;-70
2022/08/27 09:32:36;;;;;;;2.45;2.25;;;;;;;;;;5139291;27;20514;-70
2022/08/27 09:35:06;;;;;;;2.40;2.10;;;;;;;;;;5139633;27;20206;-69
2022/08/27 09:37:34;;;;;;;2.00;1.90;;;;;;;;;;5139567;27;20226;-70
2022/08/27 09:40:06;;;;;;;2.20;2.10;;;;;;;;;;5140899;27;20235;-70
2022/08/27 09:42:38;;;;;;;2.20;2.00;;;;;;;;;;5139619;27;20506;-70
2022/08/27 09:45:07;;;;;;;2.33;1.80;;;;;;;;;;5139463;27;20194;-70
2022/08/27 09:47:42;;;;;;;1.95;1.80;;;;;;;;;;5139165;27;20206;-70
2022/08/27 09:50:10;;;;;;;1.80;1.70;;;;;;;;;;5138691;27;20206;-70
2022/08/27 09:52:47;;;;;;;2.25;2.08;;;;;;;;;;5139044;27;20210;-69
2022/08/27 09:55:25;;;;;;;1.90;1.80;;;;;;;;;;5139674;27;20202;-69
2022/08/27 09:57:54;;;;;;;2.58;2.03;;;;;;;;;;5139303;27;20225;-69
2022/08/27 10:00:29;;;;;;;2.22;2.03;;;;;;;;;;5122631;27;20199;-70
2022/08/27 10:03:01;;;;;;;2.95;2.00;;;;;;;;;;5118913;28;20215;-70
2022/08/27 10:05:31;;;;;;;2.17;1.95;;;;;;;;;;5118136;28;20203;-70
2022/08/27 10:08:00;;;;;;;2.35;2.15;;;;;;;;;;5118151;28;20211;-69
2022/08/27 10:10:31;;;;;;;2.03;1.85;;;;;;;;;;5117868;28;20264;-69
2022/08/27 10:13:03;;;;;;;2.28;1.90;;;;;;;;;;5117545;28;20560;-69
2022/08/27 10:15:34;;;;;;;2.60;2.00;;;;;;;;;;5118282;28;20276;-70
2022/08/27 10:18:06;;;;;;;1.92;1.83;;;;;;;;;;5116961;28;20322;-69
2022/08/27 10:20:41;;;;;;;1.75;1.65;;;;;;;;;;5116492;28;20206;-70
2022/08/27 10:23:12;;;;;;;2.13;1.83;;;;;;;;;;5116998;28;20206;-70
2022/08/27 10:25:47;;;;;;;2.20;2.00;;;;;;;;;;5135581;27;20270;-69
2022/08/27 10:28:22;;;;;;;2.30;1.80;;;;;;;;;;5138565;27;20193;-69
2022/08/27 10:30:59;;;;;;;1.67;1.58;;;;;;;;;;5138228;27;20309;-70
2022/08/27 10:33:30;;;;;;;1.90;1.80;;;;;;;;;;5137739;27;20216;-70
2022/08/27 10:36:01;;;;;;;2.13;1.77;;;;;;;;;;5120660;27;20263;-69
2022/08/27 10:38:33;;;;;;;1.90;1.80;;;;;;;;;;5137789;27;20218;-70
2022/08/27 10:41:02;;;;;;;2.65;1.80;;;;;;;;;;5138074;27;20206;-69
2022/08/27 10:43:40;;;;;;;1.90;1.80;;;;;;;;;;5137844;27;20298;-69
2022/08/27 10:46:16;;;;;;;2.45;2.25;;;;;;;;;;5137750;27;20205;-69
2022/08/27 10:48:49;;;;;;;2.00;1.85;;;;;;;;;;5137062;27;20380;-70
2022/08/27 10:51:20;;;;;;;2.10;1.90;;;;;;;;;;5133669;27;20566;-69
2022/08/27 10:53:49;;;;;;;2.13;1.92;;;;;;;;;;5127698;27;20206;-70
2022/08/27 10:56:19;;;;;;;2.13;1.88;;;;;;;;;;5137027;27;20267;-69
2022/08/27 10:58:55;;;;;;;2.00;1.90;;;;;;;;;;5136914;27;20229;-69
2022/08/27 11:01:28;;;;;;;2.20;2.00;;;;;;;;;;5137050;27;20205;-70
2022/08/27 11:03:58;;;;;;;2.00;1.90;;;;;;;;;;5136802;27;20210;-70
2022/08/27 11:06:26;;;;;;;2.05;1.95;;;;;;;;;;5136229;27;20202;-69
2022/08/27 11:08:56;;;;;;;2.10;1.98;;;;;;;;;;5136564;27;20202;-69
2022/08/27 11:11:27;;;;;;;2.00;1.90;;;;;;;;;;5136737;27;20206;-69
2022/08/27 11:13:57;;;;;;;2.10;2.00;;;;;;;;;;5137582;27;20209;-69
2022/08/27 11:16:26;;;;;;;2.13;1.85;;;;;;;;;;5136839;27;20202;-69
2022/08/27 11:18:57;;;;;;;2.33;2.13;;;;;;;;;;5134536;27;20217;-69
2022/08/27 11:21:27;;;;;;;2.30;2.10;;;;;;;;;;5137155;27;20202;-71
2022/08/27 11:23:59;;;;;;;2.20;2.00;;;;;;;;;;5136218;27;20259;-69
2022/08/27 11:26:26;;;;;;;2.40;2.20;;;;;;;;;;5136730;27;20267;-69
2022/08/27 11:28:57;;;;;;;2.30;2.20;;;;;;;;;;5135854;27;20586;-69
2022/08/27 11:31:30;;;;;;;2.40;2.20;;;;;;;;;;5136510;27;20202;-69
2022/08/27 11:34:00;;;;;;;2.58;2.38;;;;;;;;;;5136038;27;20210;-69
2022/08/27 11:36:51;;;;;;;3.35;3.10;;;;;;;;;;5137216;27;20194;-69
2022/08/27 11:39:25;;;;;;;2.63;2.45;;;;;;;;;;5116947;27;20202;-69
2022/08/27 11:41:58;;;;;;;3.40;3.10;;;;;;;;;;5136755;27;20237;-69
2022/08/27 11:44:27;;;;;;;3.25;3.00;;;;;;;;;;5136296;27;20203;-69
2022/08/27 11:46:56;;;;;;;3.30;3.10;;;;;;;;;;5134899;27;20692;-69
2022/08/27 11:49:28;;;;;;;3.42;3.20;;;;;;;;;;5136268;27;20202;-69
2022/08/27 11:51:57;;;;;;;4.00;3.60;;;;;;;;;;5135495;27;20790;-69
2022/08/27 11:54:27;;;;;;;3.65;3.35;;;;;;;;;;5136216;27;20597;-69
2022/08/27 11:56:55;;;;;;;3.50;3.20;;;;;;;;;;5136447;27;20202;-69
2022/08/27 11:59:23;;;;;;;3.28;3.08;;;;;;;;;;5136369;27;20203;-70
2022/08/27 12:01:52;;;;;;;3.97;3.65;;;;;;;;;;5136336;27;20194;-69
2022/08/27 12:04:22;;;;;;;4.40;4.00;;;;;;;;;;5135650;27;20582;-69
2022/08/27 12:06:52;;;;;;;4.30;4.00;;;;;;;;;;5135748;27;20210;-69
2022/08/27 12:09:21;;;;;;;4.30;3.95;;;;;;;;;;5136042;27;20739;-69
2022/08/27 12:11:55;;;;;;;4.78;4.38;;;;;;;;;;5135948;27;20202;-69
2022/08/27 12:14:31;;;;;;;4.93;4.53;;;;;;;;;;5123829;27;20198;-69
2022/08/27 12:17:04;;;;;;;5.28;4.78;;;;;;;;;;5115009;28;20202;-69
2022/08/27 12:19:39;;;;;;;4.97;4.57;;;;;;;;;;5115277;28;20289;-69
2022/08/27 12:22:23;;;;;;;5.18;4.78;;;;;;;;;;5114178;28;20195;-69
2022/08/27 12:24:52;;;;;;;5.45;4.95;;;;;;;;;;5114196;28;20211;-69
2022/08/27 12:27:30;;;;;;;5.13;4.63;;;;;;;;;;5114534;28;20209;-69
2022/08/27 12:29:58;;;;;;;5.00;4.60;;;;;;;;;;5114758;28;20210;-69
2022/08/27 12:32:29;;;;;;;5.43;5.03;;;;;;;;;;5114868;28;20248;-69
2022/08/27 12:35:02;;;;;;;5.95;5.35;;;;;;;;;;5114791;28;20203;-69
2022/08/27 12:37:31;;;;;;;5.43;5.03;;;;;;;;;;5117591;28;20229;-69
2022/08/27 12:40:00;;;;;;;5.97;5.47;;;;;;;;;;5118711;28;20199;-69
2022/08/27 12:42:27;;;;;;;6.28;5.68;;;;;;;;;;5131359;27;20233;-69
2022/08/27 12:44:55;;;;;;;6.20;5.68;;;;;;;;;;5140160;27;20314;-69
2022/08/27 12:47:23;;;;;;;6.60;6.00;;;;;;;;;;5120781;27;20289;-69
2022/08/27 12:49:55;;;;;;;6.28;5.68;;;;;;;;;;5139751;27;20472;-70
2022/08/27 12:52:40;;;;;;;6.65;6.05;;;;;;;;;;5139257;27;20294;-69
2022/08/27 12:55:14;;;;;;;6.30;5.80;;;;;;;;;;5139278;27;20206;-69
2022/08/27 12:57:47;;;;;;;6.30;5.80;;;;;;;;;;5139054;27;20312;-69
2022/08/27 13:00:17;;;;;;;6.75;6.25;;;;;;;;;;5139693;27;20567;-69
2022/08/27 13:03:00;;;;;;;7.25;6.65;;;;;;;;;;5139614;27;20217;-69
2022/08/27 13:05:37;;;;;;;6.35;5.75;;;;;;;;;;5111278;27;20198;-70
2022/08/27 13:08:04;;;;;;;6.32;5.82;;;;;;;;;;5138160;27;20632;-69
2022/08/27 13:10:32;;;;;;;6.93;6.32;;;;;;;;;;5139177;27;20616;-69
2022/08/27 13:13:08;;;;;;;6.95;6.35;;;;;;;;;;5138885;27;20548;-69
2022/08/27 13:15:35;;;;;;;6.90;6.00;;;;;;;;;;5139588;27;20209;-69
2022/08/27 13:18:05;;;;;;;6.72;6.13;;;;;;;;;;5135203;27;20218;-69
2022/08/27 13:20:36;;;;;;;6.90;6.40;;;;;;;;;;5129321;27;20296;-69
2022/08/27 13:23:04;;;;;;;6.85;6.25;;;;;;;;;;5137776;27;20538;-70
2022/08/27 13:25:32;;;;;;;7.63;6.82;;;;;;;;;;5138114;27;20594;-70
2022/08/27 13:28:06;;;;;;;6.97;6.38;;;;;;;;;;5139471;27;20199;-69
2022/08/27 13:30:34;;;;;;;6.80;6.20;;;;;;;;;;5138986;27;20305;-69
2022/08/27 13:33:02;;;;;;;7.00;6.40;;;;;;;;;;5137954;27;20264;-69
2022/08/27 13:35:31;;;;;;;6.82;6.10;;;;;;;;;;5138454;27;20202;-69
2022/08/27 13:38:01;;;;;;;7.25;6.55;;;;;;;;;;5138357;27;20230;-69
2022/08/27 13:40:30;;;;;;;6.85;6.30;;;;;;;;;;5138400;27;20206;-69
2022/08/27 13:42:58;;;;;;;6.90;6.30;;;;;;;;;;5138458;27;20324;-69
2022/08/27 13:45:26;;;;;;;6.72;6.13;;;;;;;;;;5138026;27;20210;-69
2022/08/27 13:47:54;;;;;;;7.28;6.65;;;;;;;;;;5137886;27;20590;-69
2022/08/27 13:50:24;;;;;;;8.25;6.63;;;;;;;;;;5138599;27;20203;-70
2022/08/27 13:55:46;;;;;;;6.95;6.30;;;;;;;;;;5138070;27;20194;-69
2022/08/27 13:58:16;;;;;;;7.25;6.55;;;;;;;;;;5136733;27;20493;-69
2022/08/27 14:00:43;;;;;;;7.35;6.75;;;;;;;;;;5137086;27;20206;-69
2022/08/27 14:03:24;;;;;;;7.05;6.45;;;;;;;;;;5136665;27;20198;-69
2022/08/27 14:05:52;;;;;;;6.78;6.07;;;;;;;;;;5138083;27;20587;-69
2022/08/27 14:08:21;;;;;;;7.13;6.53;;;;;;;;;;5137781;27;20586;-69
2022/08/27 14:10:58;;;;;;;6.43;5.82;;;;;;;;;;5138259;27;20206;-69
2022/08/27 14:13:27;;;;;;;6.25;5.65;;;;;;;;;;5137756;27;20206;-69
2022/08/27 14:15:56;;;;;;;6.05;5.55;;;;;;;;;;5136313;27;20241;-69
2022/08/27 14:18:26;;;;;;;6.22;5.72;;;;;;;;;;5138109;27;20737;-69
2022/08/27 14:20:53;;;;;;;5.70;5.30;;;;;;;;;;5137036;27;20739;-69
2022/08/27 14:23:22;;;;;;;5.65;5.15;;;;;;;;;;5137630;27;20212;-69
2022/08/27 14:25:52;;;;;;;6.10;5.50;;;;;;;;;;5137799;27;20202;-70
2022/08/27 14:28:20;;;;;;;5.72;5.32;;;;;;;;;;5136478;27;20195;-69
2022/08/27 14:30:48;;;;;;;6.30;5.80;;;;;;;;;;5137959;27;20202;-69
2022/08/27 14:33:15;;;;;;;5.65;5.15;;;;;;;;;;5138789;27;20554;-69
2022/08/27 14:35:43;;;;;;;5.30;4.90;;;;;;;;;;5138283;27;20202;-69
2022/08/27 14:38:14;;;;;;;5.63;5.13;;;;;;;;;;5138002;27;20628;-69
2022/08/27 14:40:41;;;;;;;6.05;5.55;;;;;;;;;;5136919;27;20208;-69
2022/08/27 14:43:10;;;;;;;6.00;5.50;;;;;;;;;;5137737;27;20563;-69
2022/08/27 14:45:38;;;;;;;5.90;5.30;;;;;;;;;;5137148;27;20202;-69
2022/08/27 14:48:05;;;;;;;5.57;5.18;;;;;;;;;;5136980;27;20206;-69
2022/08/27 14:50:33;;;;;;;5.53;5.13;;;;;;;;;;5136563;27;20214;-69
2022/08/27 14:53:00;;;;;;;6.20;5.65;;;;;;;;;;5137388;27;20202;-69
2022/08/27 14:55:29;;;;;;;6.25;5.75;;;;;;;;;;5135357;27;20209;-69
2022/08/27 14:57:56;;;;;;;5.70;5.20;;;;;;;;;;5132476;27;20262;-69
2022/08/27 15:00:25;;;;;;;5.97;5.40;;;;;;;;;;5135691;27;20202;-69
2022/08/27 15:02:54;;;;;;;5.78;5.28;;;;;;;;;;5137443;27;20213;-70
2022/08/27 15:05:21;;;;;;;5.72;5.30;;;;;;;;;;5136852;27;20238;-69
2022/08/27 15:07:49;;;;;;;5.85;5.03;;;;;;;;;;5136063;27;20398;-69